Time;durP1;ratioP1;P1;durP2;ratioP2;P2;SDS_P1;SDS_P2;PMS_P1;PMS_P2;Temp;Humidity;BMP_temperature;BMP_pressure;BME280_temperature;BME280_humidity;BME280_pressure;Samples;Min_cycle;Max_cycle;Signal;HPM_P1;HPM_P2
2024/01/18 00:00:47;;;;;;;41.07;15.80;;;0.10;99.90;;;;;;5037778;28;20268;-83
2024/01/18 00:03:14;;;;;;;42.65;18.48;;;0.10;99.90;;;;;;5036697;28;20162;-82
2024/01/18 00:05:39;;;;;;;47.97;17.45;;;0.20;99.90;;;;;;5037035;28;20162;-82
2024/01/18 00:08:05;;;;;;;45.17;20.87;;;0.10;99.90;;;;;;5036620;28;20204;-82
2024/01/18 00:10:31;;;;;;;48.73;19.57;;;0.10;99.90;;;;;;5019258;28;20190;-83
2024/01/18 00:12:57;;;;;;;51.75;17.55;;;0.10;99.90;;;;;;5037244;28;20401;-83
2024/01/18 00:15:24;;;;;;;53.17;18.80;;;0.10;99.90;;;;;;5019224;28;20198;-81
2024/01/18 00:17:50;;;;;;;46.13;19.02;;;0.10;99.90;;;;;;5019199;28;20190;-82
2024/01/18 00:20:16;;;;;;;45.90;18.07;;;0.10;99.90;;;;;;5037095;28;20208;-83
2024/01/18 00:22:42;;;;;;;46.43;18.03;;;0.10;99.90;;;;;;5036858;28;20170;-83
2024/01/18 00:25:08;;;;;;;42.50;17.33;;;0.10;99.90;;;;;;5036330;28;20925;-83
2024/01/18 00:27:34;;;;;;;40.72;17.92;;;0.10;99.90;;;;;;5036380;28;20201;-82
2024/01/18 00:29:59;;;;;;;51.13;17.50;;;0.10;99.90;;;;;;5036818;28;20170;-82
2024/01/18 00:32:25;;;;;;;49.17;17.80;;;0.00;99.90;;;;;;5036637;28;20177;-83
2024/01/18 00:34:51;;;;;;;41.40;17.90;;;0.00;99.90;;;;;;5018888;28;20197;-83
2024/01/18 00:37:18;;;;;;;41.65;18.45;;;0.10;99.90;;;;;;5036953;28;20190;-82
2024/01/18 00:39:44;;;;;;;41.50;18.17;;;0.10;99.90;;;;;;5018381;28;20185;-82
2024/01/18 00:42:09;;;;;;;39.90;17.33;;;0.10;99.90;;;;;;5036673;28;20205;-83
2024/01/18 00:44:38;;;;;;;43.33;18.50;;;0.10;99.90;;;;;;5018429;28;20216;-83
2024/01/18 00:47:04;;;;;;;37.67;17.50;;;0.10;99.90;;;;;;5036619;28;20425;-83
2024/01/18 00:49:29;;;;;;;41.00;15.57;;;0.00;99.90;;;;;;5036316;28;20220;-82
2024/01/18 00:51:55;;;;;;;44.00;16.83;;;0.10;99.90;;;;;;5036262;28;20712;-83
2024/01/18 00:54:20;;;;;;;43.30;18.40;;;0.10;99.90;;;;;;5036192;28;20190;-82
2024/01/18 00:56:46;;;;;;;37.83;17.20;;;0.10;99.90;;;;;;5035820;28;20248;-82
2024/01/18 00:59:12;;;;;;;41.67;16.20;;;0.10;99.90;;;;;;5036250;28;20508;-83
2024/01/18 01:01:38;;;;;;;37.20;16.17;;;0.10;99.90;;;;;;5018229;28;20180;-82
2024/01/18 01:04:04;;;;;;;51.53;16.63;;;0.10;99.90;;;;;;5036275;28;20606;-82
2024/01/18 01:06:30;;;;;;;40.03;16.10;;;0.00;99.90;;;;;;5035977;28;20190;-82
2024/01/18 01:08:55;;;;;;;39.37;14.93;;;0.00;99.90;;;;;;5036035;28;20246;-82
2024/01/18 01:11:21;;;;;;;42.50;17.93;;;0.00;99.90;;;;;;5036113;28;20407;-82
2024/01/18 01:13:48;;;;;;;45.63;18.27;;;0.00;99.90;;;;;;5034853;28;20186;-81
2024/01/18 01:16:13;;;;;;;42.38;17.08;;;0.10;99.90;;;;;;5017922;28;20236;-83
2024/01/18 01:18:39;;;;;;;38.17;15.13;;;0.00;99.90;;;;;;5035963;28;20170;-82
2024/01/18 01:21:05;;;;;;;41.73;17.47;;;0.00;99.90;;;;;;5035554;28;20162;-82
2024/01/18 01:23:30;;;;;;;37.40;15.00;;;0.00;99.90;;;;;;5017987;28;20166;-83
2024/01/18 01:25:56;;;;;;;41.63;16.30;;;0.00;99.90;;;;;;5035516;28;20249;-83
2024/01/18 01:28:22;;;;;;;36.33;14.48;;;0.00;99.90;;;;;;5017938;28;20174;-83
2024/01/18 01:30:48;;;;;;;35.47;15.00;;;0.00;99.90;;;;;;5017799;28;20712;-82
2024/01/18 01:33:14;;;;;;;38.40;16.27;;;0.00;99.90;;;;;;5035781;28;20643;-82
2024/01/18 01:35:40;;;;;;;40.88;15.48;;;0.00;99.90;;;;;;5017550;28;20173;-82
2024/01/18 01:38:06;;;;;;;38.57;14.67;;;-0.10;99.90;;;;;;5017910;28;20190;-83
2024/01/18 01:40:31;;;;;;;41.43;15.00;;;-0.10;99.90;;;;;;5035608;28;20189;-83
2024/01/18 01:42:57;;;;;;;34.33;16.57;;;-0.10;99.90;;;;;;5035612;28;20535;-82
2024/01/18 01:45:23;;;;;;;39.20;15.83;;;0.00;99.90;;;;;;5035112;28;20158;-81
2024/01/18 01:47:48;;;;;;;43.40;16.20;;;-0.10;99.90;;;;;;5035037;28;20190;-81
2024/01/18 01:50:14;;;;;;;35.43;16.60;;;-0.10;99.90;;;;;;5035176;28;20631;-81
2024/01/18 01:52:42;;;;;;;38.97;15.10;;;0.00;99.90;;;;;;5034991;28;20174;-81
2024/01/18 01:55:08;;;;;;;39.95;15.25;;;-0.10;99.90;;;;;;5017164;28;20197;-82
2024/01/18 01:57:35;;;;;;;36.67;14.82;;;-0.10;99.90;;;;;;5034577;28;20201;-83
2024/01/18 02:00:02;;;;;;;37.08;16.88;;;-0.10;99.90;;;;;;5034796;28;20189;-81
2024/01/18 02:02:27;;;;;;;31.90;14.77;;;-0.20;99.90;;;;;;5034781;28;20165;-81
2024/01/18 02:04:54;;;;;;;39.30;16.97;;;-0.20;99.90;;;;;;5035028;28;20189;-82
2024/01/18 02:07:22;;;;;;;32.00;14.27;;;-0.20;99.90;;;;;;5017028;28;20210;-81
2024/01/18 02:09:47;;;;;;;38.35;16.10;;;-0.20;99.90;;;;;;5035246;28;20165;-83
2024/01/18 02:12:14;;;;;;;35.73;14.70;;;-0.20;99.90;;;;;;5035048;28;20631;-82
2024/01/18 02:14:40;;;;;;;42.28;16.38;;;-0.10;99.90;;;;;;5034582;28;20277;-82
2024/01/18 02:17:06;;;;;;;36.87;16.40;;;-0.10;99.90;;;;;;5017133;28;20259;-82
2024/01/18 02:19:32;;;;;;;39.83;17.05;;;-0.10;99.90;;;;;;5034990;28;20166;-82
2024/01/18 02:22:01;;;;;;;33.90;15.10;;;-0.10;99.90;;;;;;5034511;28;20158;-81
2024/01/18 02:24:33;;;;;;;35.78;15.35;;;-0.10;99.90;;;;;;5035026;28;20428;-82
2024/01/18 02:26:59;;;;;;;40.03;14.60;;;-0.10;99.90;;;;;;5039136;28;20185;-82
2024/01/18 02:29:24;;;;;;;41.80;18.03;;;-0.10;99.90;;;;;;5038852;28;20172;-82
2024/01/18 02:31:50;;;;;;;36.77;14.97;;;-0.10;99.90;;;;;;5038889;28;20939;-81
2024/01/18 02:34:17;;;;;;;41.47;15.90;;;0.00;99.90;;;;;;5038386;28;20189;-81
2024/01/18 02:36:44;;;;;;;37.50;15.02;;;0.00;99.90;;;;;;5039112;28;20178;-82
2024/01/18 02:39:10;;;;;;;47.65;15.10;;;-0.10;99.90;;;;;;5038652;28;20253;-81
2024/01/18 02:41:36;;;;;;;40.47;15.00;;;-0.10;99.90;;;;;;5038344;28;20236;-82
2024/01/18 02:44:02;;;;;;;43.35;15.32;;;-0.10;99.90;;;;;;5038643;28;20166;-82
2024/01/18 02:46:34;;;;;;;39.10;16.10;;;-0.10;99.90;;;;;;5020192;28;20666;-82
2024/01/18 02:49:01;;;;;;;37.80;14.63;;;-0.10;99.90;;;;;;5038291;28;20669;-82
2024/01/18 02:51:27;;;;;;;38.42;16.25;;;-0.10;99.90;;;;;;5038194;28;20237;-81
2024/01/18 02:53:53;;;;;;;39.47;16.30;;;-0.10;99.90;;;;;;5038093;28;20279;-81
2024/01/18 02:56:19;;;;;;;43.92;16.65;;;-0.20;99.90;;;;;;5038324;28;20421;-82
2024/01/18 02:58:45;;;;;;;39.15;15.55;;;-0.20;99.90;;;;;;5038170;28;20649;-82
2024/01/18 03:01:10;;;;;;;41.10;16.00;;;-0.20;99.90;;;;;;5038175;28;20158;-83
2024/01/18 03:03:36;;;;;;;45.90;16.77;;;-0.20;99.90;;;;;;5038044;28;20254;-81
2024/01/18 03:06:02;;;;;;;41.20;16.87;;;-0.10;99.90;;;;;;5037450;28;20189;-81
2024/01/18 03:08:28;;;;;;;37.57;14.20;;;-0.10;99.90;;;;;;5020557;28;20186;-82
2024/01/18 03:10:53;;;;;;;40.20;14.63;;;-0.10;99.90;;;;;;5038172;28;20917;-82
2024/01/18 03:13:19;;;;;;;39.43;14.17;;;-0.10;99.90;;;;;;5037931;28;20170;-82
2024/01/18 03:15:44;;;;;;;37.20;15.10;;;-0.10;99.90;;;;;;5037794;28;20215;-81
2024/01/18 03:18:10;;;;;;;34.87;12.97;;;-0.10;99.90;;;;;;5037811;28;20189;-82
2024/01/18 03:20:36;;;;;;;36.00;15.60;;;-0.10;99.90;;;;;;5037923;28;20176;-82
2024/01/18 03:23:02;;;;;;;40.40;14.73;;;-0.10;99.90;;;;;;5038215;28;20646;-81
2024/01/18 03:25:27;;;;;;;44.33;16.20;;;-0.10;99.90;;;;;;5037515;28;20166;-81
2024/01/18 03:27:53;;;;;;;34.63;15.40;;;-0.10;99.90;;;;;;5037632;28;20431;-82
2024/01/18 03:30:19;;;;;;;34.53;14.90;;;-0.10;99.90;;;;;;5020340;28;20170;-81
2024/01/18 03:32:46;;;;;;;37.83;15.65;;;-0.10;99.90;;;;;;5038635;28;20181;-82
2024/01/18 03:35:12;;;;;;;32.42;14.75;;;-0.10;99.90;;;;;;5037829;28;20571;-80
2024/01/18 03:37:37;;;;;;;41.47;15.67;;;-0.20;99.90;;;;;;5018945;28;20190;-82
2024/01/18 03:40:04;;;;;;;39.40;15.10;;;-0.20;99.90;;;;;;5037633;28;20245;-81
2024/01/18 03:42:30;;;;;;;41.15;17.05;;;-0.10;99.90;;;;;;5037256;28;20535;-82
2024/01/18 03:44:55;;;;;;;40.73;16.03;;;-0.10;99.90;;;;;;5037572;28;20158;-82
2024/01/18 03:47:21;;;;;;;34.80;16.00;;;-0.10;99.90;;;;;;5037293;28;20524;-83
2024/01/18 03:49:47;;;;;;;45.37;17.03;;;-0.20;99.90;;;;;;5037567;28;20181;-82
2024/01/18 03:52:12;;;;;;;34.70;16.97;;;-0.20;99.90;;;;;;5037417;28;20169;-81
2024/01/18 03:54:39;;;;;;;33.77;15.20;;;-0.20;99.90;;;;;;5037189;28;20695;-82
2024/01/18 03:57:05;;;;;;;39.30;17.17;;;-0.20;99.90;;;;;;5019416;28;20203;-82
2024/01/18 03:59:31;;;;;;;36.93;16.70;;;-0.20;99.90;;;;;;5037317;28;20184;-82
2024/01/18 04:01:59;;;;;;;34.73;14.80;;;-0.20;99.90;;;;;;5037178;28;20909;-82
2024/01/18 04:04:28;;;;;;;39.83;15.55;;;-0.20;99.90;;;;;;5037022;28;20255;-83
2024/01/18 04:06:53;;;;;;;38.75;17.25;;;-0.20;99.90;;;;;;5036867;28;20197;-82
2024/01/18 04:09:19;;;;;;;38.87;16.00;;;-0.20;99.90;;;;;;5037311;28;20341;-81
2024/01/18 04:11:45;;;;;;;35.97;15.40;;;-0.30;99.90;;;;;;5037269;28;20162;-82
2024/01/18 04:14:10;;;;;;;39.20;16.63;;;-0.20;99.90;;;;;;5037299;28;20204;-81
2024/01/18 04:16:37;;;;;;;37.90;16.60;;;-0.30;99.90;;;;;;5037035;28;20207;-82
2024/01/18 04:19:04;;;;;;;38.22;17.02;;;-0.30;99.90;;;;;;5020112;28;20166;-82
2024/01/18 04:21:30;;;;;;;34.90;15.43;;;-0.30;99.90;;;;;;5018766;28;20192;-81
2024/01/18 04:23:56;;;;;;;39.80;18.10;;;-0.30;99.90;;;;;;5036766;28;20192;-81
2024/01/18 04:26:24;;;;;;;41.42;17.73;;;-0.20;99.90;;;;;;5036608;28;20185;-83
2024/01/18 04:28:49;;;;;;;39.75;17.77;;;-0.30;99.90;;;;;;5036905;28;20173;-83
2024/01/18 04:31:15;;;;;;;39.27;15.57;;;-0.10;99.90;;;;;;5037020;28;20179;-82
2024/01/18 04:33:41;;;;;;;35.10;15.00;;;-0.10;99.90;;;;;;5036548;28;20197;-81
2024/01/18 04:36:07;;;;;;;40.50;14.93;;;-0.10;99.90;;;;;;5036479;28;20166;-82
2024/01/18 04:38:32;;;;;;;36.53;17.33;;;-0.20;99.90;;;;;;5018645;28;20162;-82
2024/01/18 04:40:58;;;;;;;37.30;15.63;;;-0.10;99.90;;;;;;5019084;28;20170;-83
2024/01/18 04:43:24;;;;;;;39.90;17.93;;;-0.20;99.90;;;;;;5036549;28;20173;-82
2024/01/18 04:45:50;;;;;;;36.10;15.97;;;-0.10;99.90;;;;;;5036859;28;20161;-82
2024/01/18 04:48:16;;;;;;;41.15;17.17;;;-0.10;99.90;;;;;;5036327;28;20192;-81
2024/01/18 04:50:42;;;;;;;36.17;16.47;;;-0.10;99.90;;;;;;5036433;28;20158;-81
2024/01/18 04:53:07;;;;;;;40.10;17.23;;;-0.20;99.90;;;;;;5036605;28;20400;-83
2024/01/18 04:55:33;;;;;;;48.10;16.73;;;-0.20;99.90;;;;;;5036204;28;20225;-82
2024/01/18 04:57:59;;;;;;;37.87;17.20;;;-0.10;99.90;;;;;;5035845;28;20196;-82
2024/01/18 05:00:24;;;;;;;39.73;17.70;;;-0.10;99.90;;;;;;5036197;28;20158;-82
2024/01/18 05:02:50;;;;;;;43.90;17.40;;;-0.10;99.90;;;;;;5036926;28;20781;-82
2024/01/18 05:05:16;;;;;;;41.33;17.30;;;-0.20;99.90;;;;;;5035879;28;20193;-83
2024/01/18 05:07:41;;;;;;;50.67;19.30;;;-0.10;99.90;;;;;;5036252;28;20193;-81
2024/01/18 05:10:09;;;;;;;37.20;15.90;;;-0.10;99.90;;;;;;5035527;28;20193;-81
2024/01/18 05:12:35;;;;;;;42.90;18.75;;;-0.10;99.90;;;;;;5035401;28;20166;-82
2024/01/18 05:15:02;;;;;;;37.97;18.17;;;-0.10;99.90;;;;;;5036212;28;20586;-82
2024/01/18 05:17:37;;;;;;;41.30;17.58;;;-0.10;99.90;;;;;;5036039;28;20190;-83
2024/01/18 05:20:04;;;;;;;39.33;18.52;;;-0.20;99.90;;;;;;5036054;28;20145;-83
2024/01/18 05:22:34;;;;;;;47.97;19.45;;;-0.20;99.90;;;;;;5035998;28;20163;-81
2024/01/18 05:25:01;;;;;;;40.55;19.90;;;-0.20;99.90;;;;;;5017792;28;20189;-82
2024/01/18 05:27:28;;;;;;;45.13;21.30;;;-0.20;99.90;;;;;;5017737;28;20193;-82
2024/01/18 05:29:54;;;;;;;42.70;18.15;;;-0.20;99.90;;;;;;5017848;28;20173;-81
2024/01/18 05:32:23;;;;;;;43.30;22.23;;;-0.20;99.90;;;;;;5035739;28;20197;-83
2024/01/18 05:34:49;;;;;;;41.25;20.02;;;-0.20;99.90;;;;;;5017718;28;20574;-81
2024/01/18 05:37:16;;;;;;;43.85;21.02;;;-0.20;99.90;;;;;;5017336;28;20189;-81
2024/01/18 05:39:42;;;;;;;44.40;19.77;;;-0.20;99.90;;;;;;5035568;28;20196;-82
2024/01/18 05:42:08;;;;;;;39.63;19.60;;;-0.20;99.90;;;;;;5036026;28;20555;-81
2024/01/18 05:44:34;;;;;;;36.95;16.70;;;-0.20;99.90;;;;;;5036019;28;20166;-83
2024/01/18 05:47:00;;;;;;;39.25;18.40;;;-0.20;99.90;;;;;;5035582;28;20240;-82
2024/01/18 05:49:26;;;;;;;38.47;17.47;;;-0.10;99.90;;;;;;5035222;28;20203;-83
2024/01/18 05:51:51;;;;;;;41.77;18.17;;;-0.10;99.90;;;;;;5035588;28;20257;-82
2024/01/18 05:54:17;;;;;;;43.07;20.00;;;-0.20;99.90;;;;;;5034670;28;20452;-82
2024/01/18 05:56:46;;;;;;;45.27;18.87;;;-0.10;99.90;;;;;;5035207;28;20193;-82
2024/01/18 05:59:11;;;;;;;44.35;18.80;;;-0.20;99.90;;;;;;5016968;28;20416;-83
2024/01/18 06:01:37;;;;;;;42.87;18.33;;;-0.10;99.90;;;;;;5034586;28;20192;-83
2024/01/18 06:04:03;;;;;;;41.07;20.13;;;-0.20;99.90;;;;;;5035188;28;20404;-83
2024/01/18 06:06:29;;;;;;;48.27;21.43;;;-0.10;99.90;;;;;;5034765;28;20193;-83
2024/01/18 06:08:54;;;;;;;47.97;21.20;;;-0.10;99.90;;;;;;5035319;28;20825;-82
2024/01/18 06:11:20;;;;;;;53.97;19.80;;;-0.10;99.90;;;;;;5035306;28;20401;-82
2024/01/18 06:13:46;;;;;;;45.00;20.27;;;-0.10;99.90;;;;;;5035035;28;20236;-82
2024/01/18 06:16:11;;;;;;;42.67;19.20;;;-0.10;99.90;;;;;;5017034;28;20225;-83
2024/01/18 06:18:38;;;;;;;41.47;19.67;;;-0.20;99.90;;;;;;5035082;28;20162;-83
2024/01/18 06:21:12;;;;;;;46.40;20.45;;;-0.20;99.90;;;;;;5017737;28;20166;-82
2024/01/18 06:23:40;;;;;;;50.58;21.27;;;-0.20;99.90;;;;;;5017375;28;20161;-82
2024/01/18 06:26:10;;;;;;;47.05;20.92;;;-0.20;99.90;;;;;;5035405;28;20628;-81
2024/01/18 06:28:37;;;;;;;49.25;20.67;;;-0.10;99.90;;;;;;5017331;28;20178;-81
2024/01/18 06:31:02;;;;;;;42.30;21.40;;;-0.10;99.90;;;;;;5018188;28;20651;-83
2024/01/18 06:33:28;;;;;;;44.07;20.40;;;-0.20;99.90;;;;;;5036102;28;20170;-83
2024/01/18 06:35:54;;;;;;;39.07;18.07;;;-0.20;99.90;;;;;;5018289;28;20531;-83
2024/01/18 06:38:22;;;;;;;50.23;22.13;;;-0.20;99.90;;;;;;5035513;28;20166;-83
2024/01/18 06:40:48;;;;;;;42.85;19.88;;;-0.20;99.90;;;;;;5035446;28;20166;-83
2024/01/18 06:43:15;;;;;;;51.58;23.35;;;-0.20;99.90;;;;;;5035419;28;20162;-83
2024/01/18 06:45:41;;;;;;;44.13;21.58;;;-0.20;99.90;;;;;;5035756;28;20209;-83
2024/01/18 06:48:06;;;;;;;54.37;22.40;;;-0.20;99.90;;;;;;5035186;28;20546;-83
2024/01/18 06:50:33;;;;;;;48.37;21.60;;;-0.20;99.90;;;;;;5036087;28;20166;-83
2024/01/18 06:52:59;;;;;;;47.15;21.00;;;-0.20;99.90;;;;;;5016781;28;20869;-82
2024/01/18 06:55:25;;;;;;;46.88;23.67;;;-0.20;99.90;;;;;;5016398;28;20201;-83
2024/01/18 06:57:51;;;;;;;50.05;23.50;;;-0.10;99.90;;;;;;5035106;28;20208;-83
2024/01/18 07:00:23;;;;;;;47.57;22.40;;;-0.10;99.90;;;;;;5017147;28;20631;-81
2024/01/18 07:02:50;;;;;;;43.47;20.90;;;-0.10;99.90;;;;;;5035355;28;20602;-81
2024/01/18 07:05:16;;;;;;;49.17;20.17;;;-0.10;99.90;;;;;;5034827;28;20162;-82
2024/01/18 07:07:42;;;;;;;44.95;21.02;;;-0.10;99.90;;;;;;5035302;28;20200;-82
2024/01/18 07:10:08;;;;;;;49.60;21.53;;;-0.20;99.90;;;;;;5017159;28;20204;-83
2024/01/18 07:12:34;;;;;;;38.27;18.63;;;-0.10;99.90;;;;;;5037544;28;20586;-83
2024/01/18 07:15:00;;;;;;;50.03;21.20;;;-0.10;99.90;;;;;;5039166;28;20197;-83
2024/01/18 07:17:29;;;;;;;49.10;20.60;;;-0.10;99.90;;;;;;5021416;28;20190;-83
2024/01/18 07:19:56;;;;;;;51.42;21.27;;;-0.10;99.90;;;;;;5038803;28;20639;-83
2024/01/18 07:22:22;;;;;;;43.40;20.42;;;0.00;99.90;;;;;;5021358;28;20209;-83
2024/01/18 07:24:49;;;;;;;51.00;22.45;;;-0.10;99.90;;;;;;5038618;28;20170;-82
2024/01/18 07:27:15;;;;;;;48.20;21.27;;;0.00;99.90;;;;;;5037419;28;20181;-82
2024/01/18 07:29:41;;;;;;;48.85;21.58;;;0.00;99.90;;;;;;5037933;28;20292;-82
2024/01/18 07:32:06;;;;;;;45.53;20.90;;;0.00;99.90;;;;;;5038002;28;20687;-82
2024/01/18 07:34:33;;;;;;;45.70;21.70;;;-0.10;99.90;;;;;;5037499;28;20193;-82
2024/01/18 07:36:59;;;;;;;43.38;21.63;;;-0.10;99.90;;;;;;5037773;28;20182;-82
2024/01/18 07:39:25;;;;;;;48.53;22.33;;;0.00;99.90;;;;;;5037553;28;20189;-82
2024/01/18 07:41:50;;;;;;;48.83;20.07;;;-0.10;99.90;;;;;;5037742;28;20405;-81
2024/01/18 07:44:16;;;;;;;48.10;21.47;;;0.00;99.90;;;;;;5037483;28;20170;-81
2024/01/18 07:46:41;;;;;;;43.87;19.53;;;0.00;99.90;;;;;;5037619;28;20193;-82
2024/01/18 07:49:07;;;;;;;38.53;19.23;;;0.00;99.90;;;;;;5020044;28;20166;-82
2024/01/18 07:51:33;;;;;;;46.60;24.27;;;0.00;99.90;;;;;;5039751;28;20169;-83
2024/01/18 07:53:58;;;;;;;45.60;22.20;;;0.10;99.90;;;;;;5040802;28;20277;-83
2024/01/18 07:56:24;;;;;;;45.60;20.50;;;0.10;99.90;;;;;;5041169;28;20190;-83
2024/01/18 07:58:50;;;;;;;44.83;21.40;;;0.00;99.90;;;;;;5041031;28;20154;-83
2024/01/18 08:01:18;;;;;;;45.43;20.17;;;0.10;99.90;;;;;;5040576;28;20169;-84
2024/01/18 08:03:44;;;;;;;42.63;20.05;;;0.00;99.90;;;;;;5041103;28;20170;-83
2024/01/18 08:06:11;;;;;;;50.97;22.07;;;0.00;99.90;;;;;;5022361;28;20192;-82
2024/01/18 08:08:38;;;;;;;47.97;21.85;;;0.00;99.90;;;;;;5042654;28;20458;-83
2024/01/18 08:11:03;;;;;;;45.35;20.98;;;0.00;99.90;;;;;;5022874;28;20174;-83
2024/01/18 08:13:29;;;;;;;48.13;21.87;;;0.00;99.90;;;;;;5040674;28;20635;-84
2024/01/18 08:15:57;;;;;;;50.77;23.47;;;0.00;99.90;;;;;;5041261;28;20186;-83
2024/01/18 08:18:23;;;;;;;48.03;21.38;;;0.00;99.90;;;;;;5038854;28;20173;-83
2024/01/18 08:20:50;;;;;;;48.55;23.80;;;0.00;99.90;;;;;;5039501;28;20170;-84
2024/01/18 08:23:17;;;;;;;45.08;20.67;;;0.00;99.90;;;;;;5037378;28;20175;-83
2024/01/18 08:25:43;;;;;;;49.75;21.80;;;0.00;99.90;;;;;;5019343;28;20258;-81
2024/01/18 08:28:10;;;;;;;47.10;20.50;;;0.00;99.90;;;;;;5037703;28;20678;-83
2024/01/18 08:30:36;;;;;;;52.15;24.65;;;-0.10;99.90;;;;;;5040557;28;20147;-83
2024/01/18 08:33:03;;;;;;;47.60;19.37;;;-0.10;99.90;;;;;;5039629;28;20209;-84
2024/01/18 08:35:28;;;;;;;41.08;21.50;;;-0.10;99.90;;;;;;5021552;28;20197;-83
2024/01/18 08:37:54;;;;;;;48.20;22.90;;;-0.10;99.90;;;;;;5023581;28;20559;-84
2024/01/18 08:40:20;;;;;;;48.17;20.73;;;-0.20;99.90;;;;;;5024524;28;20638;-84
2024/01/18 08:42:46;;;;;;;44.97;21.57;;;-0.20;99.90;;;;;;5041980;28;20166;-82
2024/01/18 08:45:12;;;;;;;49.47;20.52;;;-0.30;99.90;;;;;;5040032;28;20162;-83
2024/01/18 08:47:39;;;;;;;44.10;21.00;;;-0.30;99.90;;;;;;5040074;28;20193;-82
2024/01/18 08:50:06;;;;;;;46.60;21.30;;;-0.20;99.90;;;;;;5039115;28;20165;-83
2024/01/18 08:52:31;;;;;;;42.63;22.05;;;-0.30;99.90;;;;;;5037660;28;20161;-81
2024/01/18 08:54:57;;;;;;;46.40;21.23;;;-0.30;99.90;;;;;;5021822;28;20556;-82
2024/01/18 08:57:23;;;;;;;42.73;20.87;;;-0.40;99.90;;;;;;5040042;28;20542;-82
2024/01/18 08:59:48;;;;;;;46.17;21.53;;;-0.50;99.90;;;;;;5040000;28;20158;-83
2024/01/18 09:02:14;;;;;;;46.67;20.20;;;-0.60;99.90;;;;;;5038702;28;20162;-81
2024/01/18 09:04:40;;;;;;;43.80;20.50;;;-0.50;99.90;;;;;;5040547;28;20154;-83
2024/01/18 09:07:06;;;;;;;47.53;21.83;;;-0.50;99.90;;;;;;5021885;28;20229;-81
2024/01/18 09:09:31;;;;;;;45.30;23.80;;;-0.60;99.90;;;;;;5022349;28;20643;-83
2024/01/18 09:11:57;;;;;;;56.37;22.60;;;-0.60;99.90;;;;;;5041577;28;20619;-83
2024/01/18 09:14:23;;;;;;;45.87;20.80;;;-0.60;99.90;;;;;;5039618;28;20217;-83
2024/01/18 09:16:50;;;;;;;43.20;22.10;;;-0.50;99.90;;;;;;5038367;28;20186;-83
2024/01/18 09:19:15;;;;;;;49.78;21.67;;;-0.60;99.90;;;;;;5037671;28;20173;-83
2024/01/18 09:21:42;;;;;;;42.57;21.50;;;-0.60;99.90;;;;;;5038802;28;20627;-83
2024/01/18 09:24:08;;;;;;;43.13;20.75;;;-0.50;99.90;;;;;;5038916;28;20156;-83
2024/01/18 09:26:34;;;;;;;46.50;21.98;;;-0.50;99.90;;;;;;5037799;28;20725;-83
2024/01/18 09:28:59;;;;;;;48.77;23.10;;;-0.60;99.90;;;;;;5037622;28;20173;-84
2024/01/18 09:31:25;;;;;;;55.67;23.33;;;-0.50;99.90;;;;;;5037617;28;20228;-83
2024/01/18 09:33:51;;;;;;;45.30;22.63;;;-0.50;99.90;;;;;;5037447;28;20232;-83
2024/01/18 09:36:19;;;;;;;51.43;22.83;;;-0.50;99.90;;;;;;5039091;28;20189;-82
2024/01/18 09:38:46;;;;;;;43.95;21.08;;;-0.50;99.90;;;;;;5020509;28;20173;-83
2024/01/18 09:41:14;;;;;;;46.88;22.20;;;-0.50;99.90;;;;;;5038232;28;20162;-82
2024/01/18 09:43:41;;;;;;;43.78;20.27;;;-0.40;99.90;;;;;;5020486;28;20165;-83
2024/01/18 09:46:10;;;;;;;46.80;22.65;;;-0.40;99.90;;;;;;5037855;28;20168;-83
2024/01/18 09:48:36;;;;;;;49.72;23.83;;;-0.40;99.90;;;;;;5038135;28;20663;-83
2024/01/18 09:51:04;;;;;;;46.70;23.30;;;-0.40;99.90;;;;;;5038608;28;20212;-83
2024/01/18 09:53:31;;;;;;;53.42;22.90;;;-0.40;99.90;;;;;;5038756;28;20701;-82
2024/01/18 09:56:21;;;;;;;42.42;22.05;;;-0.40;99.90;;;;;;5039787;28;20207;-81
2024/01/18 09:58:46;;;;;;;44.95;21.52;;;-0.50;99.90;;;;;;5022359;28;20158;-83
2024/01/18 10:01:20;;;;;;;55.33;21.60;;;-0.40;99.90;;;;;;5039785;28;20222;-83
2024/01/18 10:03:47;;;;;;;51.80;21.35;;;-0.40;99.90;;;;;;5021169;28;20168;-82
2024/01/18 10:06:14;;;;;;;44.15;22.90;;;-0.30;99.90;;;;;;5039330;28;20181;-82
2024/01/18 10:08:40;;;;;;;55.30;24.38;;;-0.30;99.90;;;;;;5037249;28;20181;-82
2024/01/18 10:11:06;;;;;;;44.83;22.13;;;-0.30;99.90;;;;;;5020238;28;20179;-82
2024/01/18 10:13:54;;;;;;;51.70;22.77;;;-0.30;99.90;;;;;;5039452;28;20896;-83
2024/01/18 10:16:32;;;;;;;44.50;22.02;;;-0.20;99.90;;;;;;5039668;28;20638;-82
2024/01/18 10:19:02;;;;;;;41.50;20.42;;;-0.20;99.90;;;;;;5021992;28;20199;-81
2024/01/18 10:21:29;;;;;;;48.95;21.00;;;-0.10;99.90;;;;;;5038959;28;20150;-81
2024/01/18 10:23:55;;;;;;;45.30;21.67;;;0.00;99.90;;;;;;5042169;28;20169;-83
2024/01/18 10:26:22;;;;;;;57.03;22.95;;;-0.10;99.90;;;;;;5042895;28;20186;-83
2024/01/18 10:28:48;;;;;;;42.08;20.73;;;0.00;99.90;;;;;;5038772;28;20220;-82
2024/01/18 10:31:14;;;;;;;50.20;20.88;;;0.00;99.90;;;;;;5038238;28;20173;-82
2024/01/18 10:33:40;;;;;;;51.97;21.90;;;0.10;99.90;;;;;;5039109;28;20176;-82
2024/01/18 10:36:06;;;;;;;55.67;22.27;;;0.10;99.90;;;;;;5038506;28;20162;-82
2024/01/18 10:38:35;;;;;;;52.08;23.10;;;0.10;99.90;;;;;;5037319;28;20166;-82
2024/01/18 10:41:02;;;;;;;42.67;21.38;;;0.10;99.90;;;;;;5038183;28;20173;-82
2024/01/18 10:43:32;;;;;;;46.65;21.10;;;0.20;99.90;;;;;;5018175;28;20181;-82
2024/01/18 10:45:58;;;;;;;48.10;22.77;;;0.20;99.90;;;;;;5036796;28;20169;-81
2024/01/18 10:48:29;;;;;;;39.60;18.13;;;0.30;99.90;;;;;;5040095;28;20166;-82
2024/01/18 10:50:56;;;;;;;54.13;20.90;;;0.30;99.90;;;;;;5040970;28;20249;-82
2024/01/18 10:53:36;;;;;;;47.95;21.83;;;0.40;99.90;;;;;;5023062;28;20170;-83
2024/01/18 10:56:02;;;;;;;46.22;21.98;;;0.30;99.90;;;;;;5023743;28;20166;-82
2024/01/18 10:58:31;;;;;;;45.83;20.65;;;0.30;99.90;;;;;;5041318;28;20170;-82
2024/01/18 11:00:58;;;;;;;42.90;21.15;;;0.40;99.90;;;;;;5040148;28;20216;-82
2024/01/18 11:03:24;;;;;;;47.30;22.02;;;0.40;99.90;;;;;;5040361;28;20260;-83
2024/01/18 11:05:50;;;;;;;44.65;21.02;;;0.40;99.90;;;;;;5040506;28;20170;-82
2024/01/18 11:08:20;;;;;;;42.70;20.58;;;0.50;99.90;;;;;;5040425;28;20722;-82
2024/01/18 11:10:47;;;;;;;60.08;21.35;;;0.60;99.90;;;;;;5039317;28;20143;-83
2024/01/18 11:13:16;;;;;;;44.88;20.27;;;0.50;99.90;;;;;;5039428;28;20162;-82
2024/01/18 11:15:44;;;;;;;40.55;19.52;;;0.50;99.90;;;;;;5021094;28;20193;-82
2024/01/18 11:18:14;;;;;;;37.13;17.58;;;0.50;99.90;;;;;;5039180;28;20271;-82
2024/01/18 11:21:12;;;;;;;44.60;19.27;;;0.50;99.90;;;;;;5038893;28;20248;-83
2024/01/18 11:23:39;;;;;;;46.25;19.33;;;0.60;99.90;;;;;;4978975;28;20178;-82
2024/01/18 11:26:07;;;;;;;41.45;19.20;;;0.60;99.90;;;;;;5039006;28;20623;-82
2024/01/18 11:28:34;;;;;;;39.33;18.48;;;0.70;99.90;;;;;;5038766;28;20185;-82
2024/01/18 11:31:00;;;;;;;37.28;17.88;;;0.70;99.90;;;;;;5038875;28;20204;-82
2024/01/18 11:33:26;;;;;;;37.47;17.63;;;0.70;99.90;;;;;;5038703;28;20697;-82
2024/01/18 11:35:53;;;;;;;41.20;18.00;;;0.70;99.90;;;;;;5038595;28;20199;-82
2024/01/18 11:38:24;;;;;;;41.35;19.27;;;0.70;99.90;;;;;;5038527;28;20809;-82
2024/01/18 11:40:57;;;;;;;39.35;16.83;;;0.70;99.90;;;;;;5039468;28;20208;-83
2024/01/18 11:44:00;;;;;;;39.70;17.35;;;0.80;99.90;;;;;;5038355;28;20154;-82
2024/01/18 11:46:39;;;;;;;42.13;17.98;;;0.90;99.90;;;;;;5021133;28;20181;-83
2024/01/18 11:49:06;;;;;;;43.78;19.75;;;0.80;99.90;;;;;;5038970;28;20158;-83
2024/01/18 11:51:33;;;;;;;41.85;17.63;;;0.90;99.90;;;;;;5038643;28;20563;-83
2024/01/18 11:54:00;;;;;;;36.97;17.80;;;1.00;99.90;;;;;;5038536;28;20555;-83
2024/01/18 11:56:28;;;;;;;43.15;19.15;;;1.00;99.90;;;;;;5038443;28;20604;-83
2024/01/18 11:58:56;;;;;;;52.13;19.90;;;1.00;99.90;;;;;;5037321;28;20155;-84
2024/01/18 12:01:22;;;;;;;43.10;20.15;;;1.00;99.90;;;;;;5021174;28;20194;-83
2024/01/18 12:03:48;;;;;;;44.10;18.25;;;1.00;99.90;;;;;;5020630;28;20178;-84
2024/01/18 12:06:15;;;;;;;42.03;17.15;;;1.10;99.90;;;;;;5038070;28;20204;-83
2024/01/18 12:08:41;;;;;;;36.08;16.85;;;1.10;99.90;;;;;;5020752;28;20211;-84
2024/01/18 12:11:07;;;;;;;38.75;17.02;;;1.10;99.90;;;;;;5038130;28;20265;-84
2024/01/18 12:13:33;;;;;;;32.90;14.40;;;1.10;99.90;;;;;;5020796;28;20678;-84
2024/01/18 12:15:59;;;;;;;31.63;13.65;;;1.10;99.90;;;;;;5019842;28;20507;-83
2024/01/18 12:18:25;;;;;;;35.30;14.95;;;1.20;99.90;;;;;;5038705;28;20190;-83
2024/01/18 12:20:51;;;;;;;40.10;15.70;;;1.10;99.90;;;;;;5038523;28;20673;-83
2024/01/18 12:23:16;;;;;;;32.67;13.10;;;1.10;99.90;;;;;;5020228;28;20216;-83
2024/01/18 12:25:43;;;;;;;36.13;13.77;;;1.10;99.90;;;;;;5019912;28;20420;-84
2024/01/18 12:28:10;;;;;;;31.08;11.60;;;1.20;99.90;;;;;;5037614;28;20209;-84